Time;durP1;ratioP1;P1;durP2;ratioP2;P2;SDS_P1;SDS_P2;PMS_P1;PMS_P2;Temp;Humidity;BMP_temperature;BMP_pressure;BME280_temperature;BME280_humidity;BME280_pressure;Samples;Min_cycle;Max_cycle;Signal;HPM_P1;HPM_P2
2023/06/04 00:00:25;;;;;;;2.17;1.57;;;11.80;1.00;;;;;;5074167;28;20181;-76
2023/06/04 00:02:50;;;;;;;3.40;1.60;;;11.60;93.10;;;;;;5074266;28;20185;-76
2023/06/04 00:05:16;;;;;;;2.10;1.53;;;11.60;99.90;;;;;;5074221;28;20185;-75
2023/06/04 00:07:42;;;;;;;2.27;1.50;;;11.70;99.90;;;;;;5074159;28;20202;-76
2023/06/04 00:10:08;;;;;;;3.53;1.80;;;11.70;99.90;;;;;;5074019;28;20201;-76
2023/06/04 00:12:33;;;;;;;1.80;1.50;;;11.40;99.90;;;;;;5057923;28;20170;-76
2023/06/04 00:14:59;;;;;;;2.90;1.50;;;11.50;1.00;;;;;;5074109;28;20169;-76
2023/06/04 00:17:24;;;;;;;4.73;1.70;;;11.50;1.00;;;;;;5075453;28;20614;-76
2023/06/04 00:19:50;;;;;;;1.73;1.30;;;11.60;99.90;;;;;;5073791;28;20177;-76
2023/06/04 00:22:15;;;;;;;2.73;1.47;;;11.60;99.90;;;;;;5074036;28;20173;-76
2023/06/04 00:24:41;;;;;;;2.93;1.60;;;11.60;99.90;;;;;;5075027;28;20529;-76
2023/06/04 00:27:08;;;;;;;1.47;1.30;;;11.60;91.80;;;;;;5074639;28;20196;-76
2023/06/04 00:29:34;;;;;;;2.90;1.70;;;11.80;1.00;;;;;;5073946;28;20196;-75
2023/06/04 00:31:59;;;;;;;1.33;1.23;;;11.70;1.00;;;;;;5074222;28;20554;-76
2023/06/04 00:34:25;;;;;;;2.37;1.40;;;11.70;1.00;;;;;;5074938;28;20783;-76
2023/06/04 00:36:51;;;;;;;1.77;1.33;;;11.60;99.90;;;;;;5073548;28;20189;-76
2023/06/04 00:39:16;;;;;;;2.63;1.60;;;11.50;99.90;;;;;;5074949;28;20176;-76
2023/06/04 00:41:42;;;;;;;1.93;1.40;;;11.50;99.90;;;;;;5056828;28;20675;-76
2023/06/04 00:44:08;;;;;;;2.33;1.53;;;11.40;42.10;;;;;;5074806;28;20202;-76
2023/06/04 00:46:35;;;;;;;2.03;1.30;;;11.30;99.90;;;;;;5138516;23;20635;-79
2023/06/04 00:49:02;;;;;;;2.77;1.60;;;11.30;99.90;;;;;;5115647;28;20171;-79
2023/06/04 00:51:31;;;;;;;2.60;1.50;;;11.10;99.90;;;;;;5121763;27;20171;-79
2023/06/04 00:53:58;;;;;;;2.57;1.63;;;11.30;99.90;;;;;;5103672;28;20267;-79
2023/06/04 00:56:24;;;;;;;3.07;1.33;;;11.00;1.00;;;;;;5117456;27;20285;-78
2023/06/04 00:58:50;;;;;;;2.10;1.50;;;11.10;99.90;;;;;;5117700;27;20202;-79
2023/06/04 01:01:19;;;;;;;1.80;1.50;;;11.00;99.90;;;;;;5107683;28;20188;-79
2023/06/04 01:03:49;;;;;;;3.03;1.50;;;11.20;99.90;;;;;;5116745;27;20201;-79
2023/06/04 01:06:36;;;;;;;2.03;1.40;;;11.30;99.90;;;;;;5117082;27;20195;-79
2023/06/04 01:09:02;;;;;;;3.23;1.40;;;11.10;99.90;;;;;;5116941;27;20169;-78
2023/06/04 01:11:36;;;;;;;1.80;1.47;;;11.00;1.00;;;;;;5134654;27;20179;-79
2023/06/04 01:14:03;;;;;;;3.07;1.33;;;10.80;1.00;;;;;;5111634;27;20173;-79
2023/06/04 01:16:34;;;;;;;2.93;1.50;;;10.90;99.90;;;;;;5125770;27;20187;-79
2023/06/04 01:19:02;;;;;;;1.70;1.60;;;10.80;99.90;;;;;;5116467;27;20640;-79
2023/06/04 01:21:35;;;;;;;2.23;1.40;;;10.80;99.90;;;;;;5116487;27;20222;-79
2023/06/04 01:24:04;;;;;;;2.00;1.30;;;10.70;1.00;;;;;;5116028;27;20182;-78
2023/06/04 01:26:31;;;;;;;1.93;1.30;;;10.60;1.00;;;;;;5116038;27;20195;-80
2023/06/04 01:28:58;;;;;;;1.77;1.30;;;10.50;1.00;;;;;;5116114;27;20219;-79
2023/06/04 01:31:25;;;;;;;2.87;1.30;;;10.40;1.00;;;;;;5115776;27;20163;-79
2023/06/04 01:33:53;;;;;;;1.83;1.20;;;10.50;1.00;;;;;;5133857;27;20171;-79
2023/06/04 01:36:19;;;;;;;1.37;1.27;;;10.50;1.00;;;;;;5133617;27;20191;-79
2023/06/04 01:38:45;;;;;;;2.37;1.40;;;10.40;1.00;;;;;;5115661;27;20582;-79
2023/06/04 01:41:21;;;;;;;3.87;1.40;;;10.40;1.00;;;;;;5115094;27;20209;-79
2023/06/04 01:43:47;;;;;;;2.80;1.13;;;10.40;1.00;;;;;;5115116;27;20262;-79
2023/06/04 01:46:12;;;;;;;1.50;1.30;;;10.60;1.00;;;;;;5133782;27;20250;-77
2023/06/04 01:48:38;;;;;;;1.50;1.40;;;10.50;1.00;;;;;;5134244;27;20290;-78
2023/06/04 01:51:05;;;;;;;1.77;1.10;;;10.40;1.00;;;;;;5130665;27;20224;-79
2023/06/04 01:53:30;;;;;;;2.13;1.30;;;10.40;99.90;;;;;;5127006;27;20274;-78
2023/06/04 01:55:57;;;;;;;2.10;1.20;;;10.40;1.00;;;;;;5117590;27;20206;-78
2023/06/04 01:58:26;;;;;;;2.70;1.37;;;10.20;1.00;;;;;;5116860;27;20558;-79
2023/06/04 02:00:54;;;;;;;2.00;1.10;;;10.10;1.00;;;;;;5134577;27;20170;-79
2023/06/04 02:03:20;;;;;;;1.30;1.10;;;10.10;1.00;;;;;;5135219;27;20223;-78
2023/06/04 02:05:46;;;;;;;2.17;1.20;;;10.20;1.00;;;;;;5135476;28;20766;-79
2023/06/04 02:08:18;;;;;;;3.23;1.20;;;10.10;1.00;;;;;;5117085;28;20258;-79
2023/06/04 02:10:47;;;;;;;1.77;1.27;;;9.90;1.00;;;;;;5114285;28;20641;-78
2023/06/04 02:13:14;;;;;;;1.60;1.30;;;10.00;1.00;;;;;;5112086;28;20175;-79
2023/06/04 02:15:40;;;;;;;2.33;1.40;;;10.10;1.00;;;;;;5117384;28;20175;-79
2023/06/04 02:18:22;;;;;;;2.20;1.30;;;10.20;1.00;;;;;;5134981;28;20290;-79
2023/06/04 02:20:49;;;;;;;4.07;1.40;;;10.20;1.00;;;;;;5128556;28;20182;-80
2023/06/04 02:23:17;;;;;;;2.80;1.40;;;10.10;1.00;;;;;;5117133;28;20242;-78
2023/06/04 02:25:45;;;;;;;3.03;1.37;;;10.10;1.00;;;;;;5135294;28;20182;-79
2023/06/04 02:28:12;;;;;;;2.43;1.03;;;9.90;1.00;;;;;;5135139;28;20210;-79
2023/06/04 02:30:37;;;;;;;1.93;1.30;;;9.90;1.00;;;;;;5135011;28;20202;-79
2023/06/04 02:33:03;;;;;;;1.73;1.30;;;9.90;1.00;;;;;;5129329;28;20175;-78
2023/06/04 02:35:32;;;;;;;1.77;1.30;;;10.00;1.00;;;;;;5116905;28;20171;-79
2023/06/04 02:37:58;;;;;;;1.93;1.30;;;9.90;1.00;;;;;;5135370;28;20610;-79
2023/06/04 02:40:25;;;;;;;1.30;1.10;;;9.60;1.00;;;;;;5135046;28;20230;-79
2023/06/04 02:42:52;;;;;;;1.60;1.50;;;9.60;1.00;;;;;;5116720;28;20239;-79
2023/06/04 02:45:19;;;;;;;1.80;1.30;;;9.40;51.10;;;;;;5116664;28;20266;-78
2023/06/04 02:47:45;;;;;;;2.07;1.20;;;9.40;99.90;;;;;;5134947;28;20285;-79
2023/06/04 02:50:12;;;;;;;2.53;1.10;;;9.40;99.90;;;;;;5135043;28;20203;-78
2023/06/04 02:52:39;;;;;;;1.70;1.20;;;9.40;99.90;;;;;;5116703;28;20182;-78
2023/06/04 02:55:06;;;;;;;2.97;1.40;;;9.60;99.90;;;;;;5135187;28;20216;-78
2023/06/04 02:57:32;;;;;;;2.10;1.50;;;9.80;18.30;;;;;;5134954;28;20193;-79
2023/06/04 02:59:58;;;;;;;1.23;1.13;;;9.80;1.00;;;;;;5135084;28;20182;-78
2023/06/04 03:02:24;;;;;;;1.30;1.20;;;9.70;5.40;;;;;;5135502;28;20198;-79
2023/06/04 03:04:51;;;;;;;2.40;1.20;;;9.50;5.30;;;;;;5134841;28;20175;-79
2023/06/04 03:07:20;;;;;;;1.40;1.30;;;9.30;99.90;;;;;;5128548;28;20210;-78
2023/06/04 03:09:47;;;;;;;2.20;1.40;;;9.20;99.90;;;;;;5116276;28;20168;-78
2023/06/04 03:12:12;;;;;;;2.70;1.47;;;9.20;99.90;;;;;;5136562;27;20174;-79
2023/06/04 03:14:38;;;;;;;3.63;1.30;;;9.20;99.90;;;;;;5137978;27;20191;-80
2023/06/04 03:17:10;;;;;;;1.67;1.17;;;9.40;99.90;;;;;;5120023;27;20283;-78
2023/06/04 03:19:37;;;;;;;2.20;1.40;;;9.40;1.00;;;;;;5138310;27;20266;-76
2023/06/04 03:22:05;;;;;;;1.57;1.10;;;9.40;97.00;;;;;;5137854;27;20182;-80
2023/06/04 03:24:33;;;;;;;1.77;1.13;;;9.40;99.90;;;;;;5119958;27;20604;-81
2023/06/04 03:26:59;;;;;;;1.50;1.20;;;9.30;99.90;;;;;;5137733;27;20716;-79
2023/06/04 03:29:24;;;;;;;1.30;1.20;;;9.30;99.90;;;;;;5119876;27;20202;-78
2023/06/04 03:31:50;;;;;;;1.93;1.30;;;9.50;99.90;;;;;;5119454;27;20175;-79
2023/06/04 03:34:15;;;;;;;1.90;1.50;;;9.60;99.90;;;;;;5120104;27;20175;-78
2023/06/04 03:36:42;;;;;;;1.93;1.50;;;9.50;1.00;;;;;;5119481;27;20229;-81
2023/06/04 03:39:07;;;;;;;1.40;1.20;;;9.60;99.90;;;;;;5119631;27;20179;-79
2023/06/04 03:41:33;;;;;;;1.73;1.27;;;9.60;99.90;;;;;;5119115;27;20242;-79
2023/06/04 03:43:58;;;;;;;1.33;0.90;;;9.60;1.00;;;;;;5118924;27;20653;-79
2023/06/04 03:46:26;;;;;;;3.20;1.30;;;9.40;99.90;;;;;;5118532;27;20226;-79
2023/06/04 03:48:52;;;;;;;1.60;1.30;;;9.40;99.90;;;;;;5118747;27;20293;-80
2023/06/04 03:51:17;;;;;;;1.60;1.30;;;9.20;99.90;;;;;;5118531;27;20287;-78
2023/06/04 03:53:43;;;;;;;2.80;1.60;;;9.30;1.00;;;;;;5118785;27;20532;-79
2023/06/04 03:56:08;;;;;;;1.93;1.50;;;9.20;1.00;;;;;;5136897;27;20171;-78
2023/06/04 03:58:36;;;;;;;1.70;1.30;;;9.00;1.00;;;;;;5118340;27;20641;-80
2023/06/04 04:01:04;;;;;;;2.20;1.40;;;9.10;99.90;;;;;;5136466;27;20175;-79
2023/06/04 04:03:30;;;;;;;2.83;1.07;;;9.10;1.00;;;;;;5136074;27;20558;-79
2023/06/04 04:05:59;;;;;;;1.47;1.30;;;9.20;1.00;;;;;;5136367;27;20194;-80
2023/06/04 04:08:26;;;;;;;1.73;1.40;;;9.10;1.00;;;;;;5117914;27;20177;-78
2023/06/04 04:10:51;;;;;;;2.20;1.50;;;9.10;1.00;;;;;;5135949;27;20155;-78
2023/06/04 04:13:17;;;;;;;1.83;1.40;;;9.10;1.00;;;;;;5117534;27;20177;-79
2023/06/04 04:15:43;;;;;;;1.27;1.17;;;9.10;99.90;;;;;;5136142;27;20166;-79
2023/06/04 04:18:10;;;;;;;2.03;1.17;;;9.10;30.30;;;;;;5106873;27;20213;-78
2023/06/04 04:20:36;;;;;;;3.13;1.43;;;9.10;1.00;;;;;;5077822;28;20266;-78
2023/06/04 04:23:01;;;;;;;2.03;1.47;;;9.00;1.00;;;;;;5103871;28;20207;-79
2023/06/04 04:25:27;;;;;;;2.33;1.50;;;9.00;1.00;;;;;;5117273;27;20649;-79
2023/06/04 04:27:56;;;;;;;2.93;1.60;;;9.10;99.90;;;;;;5118273;27;20206;-78
2023/06/04 04:30:22;;;;;;;2.50;1.53;;;9.30;99.90;;;;;;5118220;27;20223;-79
2023/06/04 04:32:50;;;;;;;1.90;1.60;;;9.30;99.90;;;;;;5135964;27;20215;-79
2023/06/04 04:35:18;;;;;;;2.40;1.30;;;9.20;99.90;;;;;;5136015;27;20238;-78
2023/06/04 04:37:44;;;;;;;2.37;1.60;;;9.20;1.00;;;;;;5135885;27;20195;-78
2023/06/04 04:40:11;;;;;;;1.30;1.20;;;9.10;99.90;;;;;;5117558;27;20171;-80
2023/06/04 04:42:37;;;;;;;2.43;1.70;;;9.10;1.00;;;;;;5135725;27;20661;-79
2023/06/04 04:45:03;;;;;;;2.37;1.90;;;9.10;99.90;;;;;;5125584;27;20186;-82
2023/06/04 04:47:29;;;;;;;2.70;1.80;;;9.30;1.00;;;;;;5125272;27;20217;-83
2023/06/04 04:49:54;;;;;;;4.50;1.77;;;9.40;1.00;;;;;;5142833;27;20213;-81
2023/06/04 04:52:20;;;;;;;2.60;2.00;;;9.50;1.00;;;;;;5131782;27;20258;-82
2023/06/04 04:54:45;;;;;;;1.90;1.70;;;9.60;1.00;;;;;;5131289;28;20167;-81
2023/06/04 04:57:11;;;;;;;2.43;1.90;;;9.70;1.00;;;;;;5123310;28;20192;-83
2023/06/04 04:59:36;;;;;;;3.00;1.80;;;9.80;99.90;;;;;;5131546;28;20251;-81
2023/06/04 05:02:02;;;;;;;2.97;2.00;;;9.80;99.90;;;;;;5132731;28;20171;-82
2023/06/04 05:04:28;;;;;;;2.30;1.90;;;9.80;99.90;;;;;;5129777;28;20278;-82
2023/06/04 05:06:53;;;;;;;2.60;1.80;;;9.80;1.00;;;;;;5127243;28;20207;-83
2023/06/04 05:09:19;;;;;;;2.67;1.70;;;9.80;1.00;;;;;;5134955;28;20174;-84
2023/06/04 05:11:44;;;;;;;2.13;1.80;;;9.90;83.80;;;;;;5133729;28;20629;-78
2023/06/04 05:14:10;;;;;;;2.50;1.80;;;10.00;1.00;;;;;;5121015;28;20196;-82
2023/06/04 05:16:37;;;;;;;1.93;1.60;;;10.10;1.00;;;;;;5118907;28;20251;-82
2023/06/04 05:19:03;;;;;;;5.50;1.77;;;10.20;1.00;;;;;;5118774;28;20613;-81
2023/06/04 05:21:29;;;;;;;2.03;1.70;;;10.10;1.00;;;;;;5119650;28;20645;-81
2023/06/04 05:23:56;;;;;;;3.07;2.00;;;10.20;99.90;;;;;;5121068;28;20176;-82
2023/06/04 05:26:23;;;;;;;1.97;1.70;;;10.40;99.90;;;;;;5121174;28;20191;-81
2023/06/04 05:28:49;;;;;;;1.90;1.70;;;10.40;47.10;;;;;;5119249;28;20172;-81
2023/06/04 05:31:15;;;;;;;2.10;1.90;;;10.60;1.00;;;;;;5121253;28;20163;-81
2023/06/04 05:33:41;;;;;;;2.77;1.80;;;10.70;99.90;;;;;;5116697;28;20271;-81
2023/06/04 05:36:06;;;;;;;2.60;2.00;;;10.90;1.00;;;;;;5136969;27;20198;-81
2023/06/04 05:38:32;;;;;;;2.10;1.87;;;11.10;99.90;;;;;;5122892;27;20155;-83
2023/06/04 05:40:58;;;;;;;1.90;1.73;;;11.10;1.00;;;;;;5122716;27;20171;-83
2023/06/04 05:43:24;;;;;;;2.07;1.70;;;11.20;1.00;;;;;;5142553;27;20173;-81
2023/06/04 05:45:51;;;;;;;4.50;1.70;;;11.30;1.00;;;;;;5123030;27;20167;-79
2023/06/04 05:48:16;;;;;;;2.33;1.60;;;11.30;1.00;;;;;;5122813;27;20289;-81
2023/06/04 05:50:42;;;;;;;2.63;1.90;;;11.40;99.90;;;;;;5142898;27;20194;-81
2023/06/04 05:53:07;;;;;;;2.57;1.80;;;11.50;99.90;;;;;;5123891;27;20198;-79
2023/06/04 05:55:33;;;;;;;3.17;1.87;;;11.60;99.90;;;;;;5123230;27;20211;-82
2023/06/04 05:57:59;;;;;;;3.33;1.93;;;11.80;99.90;;;;;;5122974;27;20202;-82
2023/06/04 06:00:25;;;;;;;2.33;1.60;;;11.90;1.00;;;;;;5122908;28;20190;-81
2023/06/04 06:02:52;;;;;;;3.77;1.90;;;11.90;1.00;;;;;;5122976;28;20182;-81
2023/06/04 06:05:18;;;;;;;3.10;1.70;;;12.00;1.00;;;;;;5142009;27;20183;-80
2023/06/04 06:07:44;;;;;;;3.13;1.90;;;12.00;99.90;;;;;;5140859;28;20239;-81
2023/06/04 06:10:10;;;;;;;3.83;2.00;;;12.20;1.00;;;;;;5122955;28;20175;-82
2023/06/04 06:12:36;;;;;;;2.20;1.60;;;12.30;1.00;;;;;;5143517;28;20213;-83
2023/06/04 06:15:02;;;;;;;4.20;1.70;;;12.40;1.00;;;;;;5124005;28;20516;-80
2023/06/04 06:17:28;;;;;;;2.17;1.83;;;12.50;1.00;;;;;;5142807;28;20247;-81
2023/06/04 06:19:54;;;;;;;2.23;1.77;;;12.60;1.00;;;;;;5141538;28;20300;-81
2023/06/04 06:22:19;;;;;;;3.30;1.80;;;12.70;99.90;;;;;;5145768;28;20171;-80
2023/06/04 06:24:48;;;;;;;2.30;1.80;;;12.80;28.30;;;;;;5145916;28;20167;-80
2023/06/04 06:27:15;;;;;;;2.33;1.50;;;12.90;1.00;;;;;;5126138;28;20195;-80
2023/06/04 06:29:41;;;;;;;3.83;1.80;;;13.00;44.20;;;;;;5145451;28;20171;-80
2023/06/04 06:32:07;;;;;;;2.47;1.50;;;13.10;1.00;;;;;;5126280;28;20176;-81
2023/06/04 06:34:33;;;;;;;2.27;1.67;;;13.20;99.90;;;;;;5127112;28;20166;-82
2023/06/04 06:36:58;;;;;;;2.87;1.60;;;13.30;1.00;;;;;;5127452;28;20222;-81
2023/06/04 06:39:24;;;;;;;2.67;1.70;;;13.50;1.00;;;;;;5126993;28;20171;-79
2023/06/04 06:41:50;;;;;;;3.53;1.80;;;13.60;1.00;;;;;;5127327;28;20268;-80
2023/06/04 06:44:15;;;;;;;2.50;1.70;;;13.80;1.00;;;;;;5146771;28;20224;-80
2023/06/04 06:46:41;;;;;;;3.73;1.60;;;13.90;1.00;;;;;;5141956;22;20202;-84
2023/06/04 06:49:07;;;;;;;2.03;1.63;;;13.90;99.90;;;;;;5097062;28;20203;-85
2023/06/04 06:51:32;;;;;;;3.17;2.00;;;14.00;1.00;;;;;;5102475;28;20168;-82
2023/06/04 06:53:58;;;;;;;2.53;1.80;;;14.10;1.00;;;;;;5094782;28;20172;-82
2023/06/04 06:56:23;;;;;;;2.73;1.80;;;14.30;1.00;;;;;;5094491;28;20176;-82
2023/06/04 06:58:49;;;;;;;2.33;1.67;;;14.40;1.00;;;;;;5077597;28;20602;-82
2023/06/04 07:01:15;;;;;;;5.13;2.07;;;14.60;99.90;;;;;;5076123;28;20168;-83
2023/06/04 07:03:40;;;;;;;2.63;1.50;;;14.70;1.00;;;;;;5080564;28;20191;-85
2023/06/04 07:06:06;;;;;;;2.13;1.70;;;14.90;1.00;;;;;;5104346;28;20207;-83
2023/06/04 07:08:33;;;;;;;2.60;1.77;;;15.10;99.90;;;;;;5097137;28;20180;-83
2023/06/04 07:10:59;;;;;;;3.03;1.83;;;15.30;1.00;;;;;;5100173;28;20168;-83
2023/06/04 07:13:25;;;;;;;3.47;1.63;;;15.50;99.90;;;;;;5094236;28;20194;-82
2023/06/04 07:15:51;;;;;;;3.20;1.80;;;15.70;99.90;;;;;;5094013;28;20237;-82
2023/06/04 07:18:16;;;;;;;2.77;1.80;;;15.90;99.90;;;;;;5095477;28;20192;-82
2023/06/04 07:20:42;;;;;;;1.63;1.53;;;16.20;1.00;;;;;;5097899;28;20172;-82
2023/06/04 07:23:07;;;;;;;2.70;2.07;;;16.40;1.00;;;;;;5095333;28;20553;-82
2023/06/04 07:25:34;;;;;;;2.87;2.00;;;16.70;1.00;;;;;;5094635;28;20238;-82
2023/06/04 07:27:59;;;;;;;2.33;2.10;;;17.00;1.00;;;;;;5095242;28;20245;-82
2023/06/04 07:30:26;;;;;;;2.67;2.10;;;17.20;99.90;;;;;;5093706;28;20184;-82
2023/06/04 07:32:51;;;;;;;2.20;1.90;;;17.40;99.90;;;;;;5093783;28;20176;-82
2023/06/04 07:35:17;;;;;;;2.77;1.97;;;17.60;99.90;;;;;;5097483;28;20325;-83
2023/06/04 07:37:44;;;;;;;2.80;2.00;;;17.70;99.90;;;;;;5107891;28;20206;-82
2023/06/04 07:40:11;;;;;;;3.13;2.10;;;17.90;99.90;;;;;;5097168;28;20185;-82
2023/06/04 07:42:37;;;;;;;2.93;2.03;;;18.00;99.90;;;;;;5097232;28;20178;-82
2023/06/04 07:45:03;;;;;;;2.00;1.80;;;18.10;99.90;;;;;;5097097;28;20177;-83
2023/06/04 07:47:28;;;;;;;2.07;1.87;;;18.20;99.90;;;;;;5097040;28;20212;-83
2023/06/04 07:49:54;;;;;;;2.10;1.90;;;18.30;99.90;;;;;;5091111;28;20202;-82
2023/06/04 07:52:20;;;;;;;3.47;1.80;;;18.40;99.90;;;;;;5079207;28;20180;-81
2023/06/04 07:54:45;;;;;;;4.60;2.30;;;18.60;99.90;;;;;;5082278;28;20175;-81
2023/06/04 07:57:11;;;;;;;2.20;1.80;;;18.80;99.90;;;;;;5083238;28;20606;-81
2023/06/04 07:59:36;;;;;;;2.87;2.10;;;18.90;99.90;;;;;;5065425;28;20181;-80
2023/06/04 08:02:02;;;;;;;2.17;1.77;;;19.10;99.90;;;;;;5057434;28;20177;-81
2023/06/04 08:04:28;;;;;;;2.77;2.17;;;19.20;99.90;;;;;;5075619;28;20179;-81
2023/06/04 08:06:55;;;;;;;2.70;2.00;;;19.10;99.90;;;;;;5057203;28;20204;-81
2023/06/04 08:09:20;;;;;;;1.90;1.80;;;19.20;99.90;;;;;;5057237;28;20169;-81
2023/06/04 08:11:46;;;;;;;2.90;2.07;;;19.20;99.90;;;;;;5074973;28;20259;-81
2023/06/04 08:14:12;;;;;;;3.00;2.23;;;19.50;99.90;;;;;;5075033;28;20639;-82
2023/06/04 08:16:38;;;;;;;2.20;2.00;;;19.40;99.90;;;;;;5056492;28;20230;-81
2023/06/04 08:19:04;;;;;;;2.73;2.00;;;19.50;99.90;;;;;;5056877;28;20173;-80
2023/06/04 08:21:30;;;;;;;3.60;2.30;;;19.70;99.90;;;;;;5056468;28;20173;-82
2023/06/04 08:23:56;;;;;;;2.63;2.13;;;19.90;99.90;;;;;;5056992;28;20648;-81
2023/06/04 08:26:21;;;;;;;2.70;2.27;;;20.00;99.90;;;;;;5056931;28;20658;-80
2023/06/04 08:28:50;;;;;;;3.37;2.10;;;19.90;99.90;;;;;;5074993;28;20185;-81
2023/06/04 08:31:16;;;;;;;2.90;2.40;;;20.10;99.90;;;;;;5074247;28;20648;-81
2023/06/04 08:33:44;;;;;;;2.53;2.33;;;20.30;99.90;;;;;;5074397;28;20177;-81
2023/06/04 08:36:10;;;;;;;3.33;2.30;;;20.30;99.90;;;;;;5065716;28;20176;-81
2023/06/04 08:38:35;;;;;;;2.87;2.20;;;20.50;99.90;;;;;;5059548;28;20262;-82
2023/06/04 08:41:15;;;;;;;3.10;2.20;;;20.50;99.90;;;;;;5074351;28;20176;-81
2023/06/04 08:43:43;;;;;;;2.38;2.00;;;20.60;99.90;;;;;;5057186;28;20180;-81
2023/06/04 08:46:11;;;;;;;2.75;2.35;;;20.70;99.90;;;;;;5074330;28;20165;-81
2023/06/04 08:48:38;;;;;;;2.97;2.20;;;20.70;99.90;;;;;;5088190;28;20589;-81
2023/06/04 08:51:09;;;;;;;3.38;2.28;;;20.80;99.90;;;;;;5092182;28;20548;-82
2023/06/04 08:53:36;;;;;;;2.58;2.30;;;20.80;99.90;;;;;;5114618;28;20227;-81
2023/06/04 08:56:02;;;;;;;3.47;2.10;;;20.90;99.90;;;;;;5115019;28;20160;-81
2023/06/04 08:58:32;;;;;;;3.33;2.45;;;20.90;99.90;;;;;;5114612;28;20191;-81
2023/06/04 09:00:57;;;;;;;2.70;2.50;;;21.00;99.90;;;;;;5114536;28;20168;-81
2023/06/04 09:03:25;;;;;;;2.95;2.50;;;21.20;99.90;;;;;;5114648;28;20182;-81
2023/06/04 09:05:51;;;;;;;2.78;2.30;;;21.30;99.90;;;;;;5096665;28;20176;-81
2023/06/04 09:08:19;;;;;;;2.63;2.22;;;21.40;99.90;;;;;;5114300;28;20319;-81
2023/06/04 09:10:49;;;;;;;2.55;2.35;;;21.40;99.90;;;;;;5095882;28;20178;-81
2023/06/04 09:13:17;;;;;;;3.28;2.50;;;21.30;99.90;;;;;;5115179;28;20183;-81
2023/06/04 09:15:42;;;;;;;2.83;2.50;;;21.40;99.90;;;;;;5096120;28;20677;-81
2023/06/04 09:18:08;;;;;;;3.80;2.75;;;21.50;99.90;;;;;;5114441;28;20219;-81
2023/06/04 09:20:33;;;;;;;2.83;2.50;;;21.50;99.90;;;;;;5096081;28;20186;-81
2023/06/04 09:22:59;;;;;;;2.83;2.53;;;21.80;99.90;;;;;;5096101;28;20189;-81
2023/06/04 09:25:26;;;;;;;2.78;2.47;;;22.00;99.90;;;;;;5096322;28;20179;-81
2023/06/04 09:27:57;;;;;;;4.45;2.95;;;22.20;99.90;;;;;;5095810;28;20210;-79
2023/06/04 09:30:23;;;;;;;3.67;2.83;;;22.30;99.90;;;;;;5074597;28;20176;-81
2023/06/04 09:32:49;;;;;;;5.88;3.30;;;22.40;99.90;;;;;;5055691;28;20201;-81
2023/06/04 09:35:19;;;;;;;2.85;2.65;;;22.50;99.90;;;;;;5055532;28;20208;-81
2023/06/04 09:37:56;;;;;;;3.28;2.97;;;22.60;99.90;;;;;;5055324;28;20208;-81
2023/06/04 09:40:22;;;;;;;2.97;2.78;;;22.70;99.90;;;;;;5072893;28;20544;-81
2023/06/04 09:42:54;;;;;;;3.47;3.10;;;23.00;99.90;;;;;;5073216;28;20204;-81
2023/06/04 09:45:35;;;;;;;4.35;2.92;;;23.20;99.90;;;;;;5055272;28;20152;-80
2023/06/04 09:48:02;;;;;;;5.90;3.20;;;23.10;99.90;;;;;;5054278;28;20295;-79
2023/06/04 09:50:30;;;;;;;3.38;2.85;;;23.20;99.90;;;;;;5054704;28;20169;-79
2023/06/04 09:52:56;;;;;;;5.13;2.80;;;23.40;99.90;;;;;;5069968;28;20183;-81
2023/06/04 09:55:22;;;;;;;5.15;3.75;;;23.60;99.90;;;;;;5076959;28;20172;-78
2023/06/04 09:57:50;;;;;;;4.22;3.10;;;23.70;99.90;;;;;;5077939;28;20291;-78
2023/06/04 10:00:17;;;;;;;3.83;3.28;;;23.40;99.90;;;;;;5077175;28;20172;-83
2023/06/04 10:02:45;;;;;;;7.53;4.45;;;23.30;99.20;;;;;;5075894;28;20176;-83
2023/06/04 10:05:14;;;;;;;9.68;5.15;;;23.50;99.90;;;;;;5094326;28;20172;-83
2023/06/04 10:07:42;;;;;;;8.98;4.88;;;23.40;99.20;;;;;;5093739;28;20276;-85
2023/06/04 10:10:10;;;;;;;3.67;3.30;;;23.60;99.90;;;;;;5092593;28;20160;-83
2023/06/04 10:12:37;;;;;;;3.55;3.25;;;24.00;99.90;;;;;;5074461;28;20783;-83
2023/06/04 10:15:12;;;;;;;4.82;3.30;;;24.10;98.50;;;;;;5092773;28;20169;-84
2023/06/04 10:17:39;;;;;;;3.83;3.40;;;24.50;92.80;;;;;;5074427;28;20195;-82
2023/06/04 10:20:08;;;;;;;11.10;5.88;;;24.30;91.40;;;;;;5092327;28;20186;-83
2023/06/04 10:22:34;;;;;;;6.85;3.70;;;24.00;82.60;;;;;;5077049;28;20176;-83
2023/06/04 10:25:00;;;;;;;5.82;3.67;;;24.00;82.00;;;;;;5078736;28;20625;-84
2023/06/04 10:27:26;;;;;;;3.92;3.33;;;24.00;79.70;;;;;;5078319;28;20686;-84
2023/06/04 10:29:52;;;;;;;5.50;4.20;;;23.80;75.90;;;;;;5096646;28;20195;-84
2023/06/04 10:32:19;;;;;;;3.97;3.40;;;24.20;86.40;;;;;;5091651;28;20181;-84
2023/06/04 10:34:46;;;;;;;4.53;4.03;;;24.30;76.40;;;;;;5076411;28;20173;-80
2023/06/04 10:37:29;;;;;;;8.55;5.22;;;24.50;85.10;;;;;;5058185;28;20192;-84
2023/06/04 10:39:58;;;;;;;3.60;3.30;;;24.90;83.80;;;;;;5076080;28;20188;-85
2023/06/04 10:42:25;;;;;;;4.63;3.38;;;25.00;63.90;;;;;;5058075;28;20200;-85
2023/06/04 10:44:52;;;;;;;4.47;3.67;;;24.90;66.60;;;;;;5058010;28;20173;-84
2023/06/04 10:47:18;;;;;;;6.90;4.88;;;24.80;64.20;;;;;;5075928;28;20334;-81
2023/06/04 10:49:44;;;;;;;4.22;3.70;;;25.00;73.90;;;;;;5058341;28;20256;-81
2023/06/04 10:52:10;;;;;;;4.15;3.75;;;25.30;64.70;;;;;;5058341;28;20264;-82
2023/06/04 10:54:36;;;;;;;4.03;3.50;;;25.10;55.60;;;;;;5075987;28;20827;-81
2023/06/04 10:57:13;;;;;;;5.25;3.53;;;25.00;56.40;;;;;;5058367;28;20283;-80
2023/06/04 10:59:39;;;;;;;4.05;3.67;;;25.20;55.10;;;;;;5076262;28;20165;-82
2023/06/04 11:02:09;;;;;;;4.07;3.45;;;25.30;55.00;;;;;;5076825;28;20522;-82
2023/06/04 11:04:40;;;;;;;3.65;3.30;;;25.50;70.30;;;;;;5077121;28;20260;-82
2023/06/04 11:07:08;;;;;;;4.10;3.60;;;25.60;47.30;;;;;;5077044;28;20228;-82
2023/06/04 11:09:47;;;;;;;4.10;3.70;;;26.00;45.40;;;;;;5058734;28;20177;-82
2023/06/04 11:12:13;;;;;;;4.18;3.58;;;26.00;42.10;;;;;;5081254;28;20196;-81
2023/06/04 11:14:39;;;;;;;4.28;3.70;;;25.70;45.50;;;;;;5097274;28;20285;-81
2023/06/04 11:17:12;;;;;;;3.80;3.50;;;25.70;42.10;;;;;;5078503;28;20198;-82
2023/06/04 11:19:39;;;;;;;3.85;3.55;;;25.80;42.70;;;;;;5078872;28;20267;-81
2023/06/04 11:22:05;;;;;;;3.80;3.42;;;25.90;41.90;;;;;;5097010;28;20180;-82
2023/06/04 11:24:32;;;;;;;3.63;3.33;;;25.80;37.20;;;;;;5096944;28;20191;-82
2023/06/04 11:27:02;;;;;;;4.05;3.50;;;26.00;37.80;;;;;;5078362;28;20206;-82
2023/06/04 11:29:28;;;;;;;4.10;3.70;;;25.90;35.30;;;;;;5096789;28;20610;-81
2023/06/04 11:31:54;;;;;;;3.85;3.45;;;26.10;33.70;;;;;;5078430;28;20164;-82
2023/06/04 11:34:31;;;;;;;4.88;3.85;;;26.40;30.30;;;;;;5078351;28;20203;-81
2023/06/04 11:37:07;;;;;;;3.90;3.50;;;26.50;27.80;;;;;;5078138;28;20216;-82
2023/06/04 11:39:35;;;;;;;4.13;3.60;;;26.50;28.00;;;;;;5096774;28;20164;-82
2023/06/04 11:42:05;;;;;;;3.88;3.58;;;26.40;29.40;;;;;;5075218;28;20643;-82
2023/06/04 11:44:31;;;;;;;4.22;3.30;;;26.60;31.60;;;;;;5057720;28;20173;-80
2023/06/04 11:46:58;;;;;;;4.50;3.55;;;26.90;36.00;;;;;;5057604;28;20208;-82
2023/06/04 11:49:24;;;;;;;3.67;3.30;;;27.00;31.50;;;;;;5075820;28;20507;-82
2023/06/04 11:51:51;;;;;;;3.17;2.92;;;27.10;29.30;;;;;;5057422;28;20176;-82
2023/06/04 11:54:18;;;;;;;3.35;3.05;;;27.00;32.30;;;;;;5058136;28;20192;-82
2023/06/04 11:56:44;;;;;;;4.97;3.88;;;26.90;29.10;;;;;;5057791;28;20207;-82
2023/06/04 11:59:13;;;;;;;3.83;3.13;;;27.10;27.60;;;;;;5076540;28;20173;-82
2023/06/04 12:01:43;;;;;;;3.20;3.00;;;27.30;24.90;;;;;;5075899;28;20173;-82
2023/06/04 12:04:17;;;;;;;3.50;3.20;;;27.40;24.50;;;;;;5057683;28;20177;-82
2023/06/04 12:06:53;;;;;;;3.47;3.17;;;27.10;24.10;;;;;;5075013;28;20204;-82
2023/06/04 12:09:23;;;;;;;3.90;3.22;;;26.60;22.30;;;;;;5057728;28;20176;-82
2023/06/04 12:11:48;;;;;;;4.00;2.90;;;26.90;26.60;;;;;;5057823;28;20184;-82
2023/06/04 12:14:18;;;;;;;3.13;2.83;;;27.00;20.90;;;;;;5057792;28;20173;-82
2023/06/04 12:16:55;;;;;;;3.05;2.70;;;27.40;24.10;;;;;;5076063;28;20296;-81
2023/06/04 12:19:20;;;;;;;3.05;2.85;;;27.60;25.60;;;;;;5087860;28;20236;-82
2023/06/04 12:21:46;;;;;;;2.83;2.63;;;27.60;25.20;;;;;;5096076;28;20184;-82
2023/06/04 12:24:13;;;;;;;5.32;2.67;;;28.00;23.80;;;;;;5074122;28;20181;-82
2023/06/04 12:26:40;;;;;;;2.95;2.65;;;28.10;23.70;;;;;;5075037;28;20193;-82
2023/06/04 12:29:13;;;;;;;3.78;2.80;;;28.40;22.10;;;;;;5075358;28;20173;-82
2023/06/04 12:31:46;;;;;;;3.13;2.78;;;28.40;16.70;;;;;;5075621;28;20169;-82
2023/06/04 12:34:14;;;;;;;3.10;2.78;;;28.10;13.50;;;;;;5057408;28;20534;-82
2023/06/04 12:36:40;;;;;;;2.90;2.70;;;27.70;15.00;;;;;;5057644;28;20177;-81
2023/06/04 12:39:07;;;;;;;2.83;2.60;;;27.60;16.80;;;;;;5057020;28;20169;-82
2023/06/04 12:41:33;;;;;;;2.70;2.50;;;27.60;16.80;;;;;;5094885;28;20649;-82
2023/06/04 12:43:59;;;;;;;3.03;2.40;;;27.60;18.30;;;;;;5074101;28;20181;-82
2023/06/04 12:46:26;;;;;;;2.35;2.10;;;27.70;16.20;;;;;;5075402;28;20198;-80
2023/06/04 12:48:52;;;;;;;3.45;2.30;;;27.80;15.40;;;;;;5094936;28;20184;-83
2023/06/04 12:51:18;;;;;;;2.60;2.40;;;27.90;17.10;;;;;;5094925;28;20255;-81